createdAt,value
2022-12-24T00:02:19.227Z,98665.22
2022-12-24T00:05:06.990Z,98666.94
2022-12-24T00:07:44.322Z,98674.41
2022-12-24T00:10:12.797Z,98673.28
2022-12-24T00:12:42.132Z,98688.03
2022-12-24T00:15:12.541Z,98682.81
2022-12-24T00:17:42.373Z,98673.97
2022-12-24T00:20:17.615Z,98672.22
2022-12-24T00:22:47.028Z,98685.34
2022-12-24T00:25:15.641Z,98702.44
2022-12-24T00:27:47.362Z,98714.63
2022-12-24T00:30:21.194Z,98701.81
2022-12-24T00:32:50.839Z,98706.00
2022-12-24T00:35:43.640Z,98718.19
2022-12-24T00:38:23.429Z,98709.53
2022-12-24T00:40:54.589Z,98734.84
2022-12-24T00:43:26.333Z,98743.38
2022-12-24T00:45:57.060Z,98736.53
2022-12-24T00:48:25.961Z,98752.19
2022-12-24T00:51:04.705Z,98730.56
2022-12-24T00:53:33.660Z,98736.88
2022-12-24T00:56:11.191Z,98747.53
2022-12-24T00:58:42.864Z,98753.91
2022-12-24T01:01:12.046Z,98748.91
2022-12-24T01:03:44.372Z,98759.06
2022-12-24T01:06:22.283Z,98745.56
2022-12-24T01:08:52.693Z,98741.06
2022-12-24T01:11:22.983Z,98743.41
2022-12-24T01:13:52.118Z,98743.91
2022-12-24T01:16:21.692Z,98740.91
2022-12-24T01:18:58.741Z,98742.91
2022-12-24T01:21:31.907Z,98753.59
2022-12-24T01:24:10.734Z,98751.59
2022-12-24T01:26:44.318Z,98768.59
2022-12-24T01:29:17.665Z,98762.28
2022-12-24T01:31:47.771Z,98755.25
2022-12-24T01:34:17.104Z,98754.75
2022-12-24T01:36:49.363Z,98755.75
2022-12-24T01:39:20.972Z,98732.38
2022-12-24T01:42:09.730Z,98741.72
2022-12-24T01:44:42.525Z,98725.38
2022-12-24T01:47:16.340Z,98719.03
2022-12-24T01:49:54.887Z,98716.88
2022-12-24T01:52:34.452Z,98724.91
2022-12-24T01:55:07.688Z,98724.88
2022-12-24T01:57:41.900Z,98742.59
2022-12-24T02:00:14.642Z,98759.25
2022-12-24T02:02:48.735Z,98753.25
2022-12-24T02:05:24.516Z,98753.09
2022-12-24T02:07:57.164Z,98759.28
2022-12-24T02:10:35.932Z,98761.94
2022-12-24T02:13:12.889Z,98743.25
2022-12-24T02:15:56.047Z,98750.25
2022-12-24T02:18:31.615Z,98763.94
2022-12-24T02:21:38.694Z,98745.41
2022-12-24T02:24:51.003Z,98748.94
2022-12-24T02:27:38.835Z,98751.25
2022-12-24T02:30:19.791Z,98747.75
2022-12-24T02:33:16.186Z,98736.06
2022-12-24T02:35:55.196Z,98721.69
2022-12-24T02:38:28.446Z,98724.84
2022-12-24T02:41:11.806Z,98740.06
2022-12-24T02:43:47.304Z,98737.41
2022-12-24T02:46:40.790Z,98710.69
2022-12-24T02:49:11.379Z,98715.72
2022-12-24T02:51:41.820Z,98717.19
2022-12-24T02:54:10.912Z,98726.06
2022-12-24T02:56:58.853Z,98735.22
2022-12-24T02:59:40.544Z,98740.91
2022-12-24T03:02:28.255Z,98747.56
2022-12-24T03:05:08.239Z,98739.22
2022-12-24T03:07:41.287Z,98731.53
2022-12-24T03:10:21.617Z,98744.91
2022-12-24T03:12:52.839Z,98761.78
2022-12-24T03:15:26.697Z,98750.22
2022-12-24T03:18:13.287Z,98762.91
2022-12-24T03:20:44.034Z,98769.22
2022-12-24T03:23:14.453Z,98771.72
2022-12-24T03:25:52.856Z,98767.72
2022-12-24T03:28:26.106Z,98783.47
2022-12-24T03:30:59.645Z,98778.59
2022-12-24T03:33:36.785Z,98767.59
2022-12-24T03:36:08.993Z,98786.59
2022-12-24T03:38:42.903Z,98789.06
2022-12-24T03:41:14.869Z,98789.88
2022-12-24T03:43:45.853Z,98803.88
2022-12-24T03:46:20.496Z,98816.19
2022-12-24T03:48:54.928Z,98799.69
2022-12-24T03:51:33.391Z,98808.38
2022-12-24T03:54:10.198Z,98811.69
2022-12-24T03:56:41.832Z,98829.75
2022-12-24T03:59:11.198Z,98831.41
2022-12-24T04:01:47.462Z,98814.88
2022-12-24T04:04:33.574Z,98821.88
2022-12-24T04:07:14.563Z,98829.22
2022-12-24T04:09:46.246Z,98829.06
2022-12-24T04:12:19.964Z,98830.59
2022-12-24T04:14:51.578Z,98823.06
2022-12-24T04:17:20.038Z,98821.22
2022-12-24T04:19:52.013Z,98827.91
2022-12-24T04:22:24.842Z,98818.81
2022-12-24T04:24:58.850Z,98820.34
2022-12-24T04:27:32.684Z,98833.91
2022-12-24T04:30:04.719Z,98843.59
2022-12-24T04:32:35.554Z,98828.38
2022-12-24T04:35:07.308Z,98830.41
2022-12-24T04:37:49.526Z,98849.25
2022-12-24T04:40:19.157Z,98839.09
2022-12-24T04:42:50.570Z,98842.59
2022-12-24T04:45:21.576Z,98840.94
2022-12-24T04:47:50.250Z,98845.25
2022-12-24T04:50:22.270Z,98849.44
2022-12-24T04:52:56.239Z,98848.59
2022-12-24T04:55:30.997Z,98868.47
2022-12-24T04:58:02.638Z,98865.31
2022-12-24T05:00:34.985Z,98885.00
2022-12-24T05:03:11.479Z,98884.81
2022-12-24T05:05:42.771Z,98899.00
2022-12-24T05:08:13.672Z,98893.84
2022-12-24T05:10:50.579Z,98881.66
2022-12-24T05:13:21.659Z,98896.16
2022-12-24T05:15:50.979Z,98898.44
2022-12-24T05:18:28.736Z,98905.03
2022-12-24T05:20:59.861Z,98915.91
2022-12-24T05:23:46.558Z,98910.88
2022-12-24T05:26:25.484Z,98916.06
2022-12-24T05:28:58.166Z,98911.47
2022-12-24T05:31:29.191Z,98916.47
2022-12-24T05:34:00.849Z,98921.16
2022-12-24T05:36:48.588Z,98918.63
2022-12-24T05:39:22.338Z,98927.81
2022-12-24T05:41:51.793Z,98922.03
2022-12-24T05:44:21.483Z,98940.88
2022-12-24T05:46:50.026Z,98939.75
2022-12-24T05:49:21.734Z,98937.59
2022-12-24T05:51:57.434Z,98938.09
2022-12-24T05:54:31.015Z,98924.91
2022-12-24T05:57:07.989Z,98960.66
2022-12-24T05:59:41.997Z,98940.75
2022-12-24T06:02:21.556Z,98934.59
2022-12-24T06:04:50.580Z,98953.28
2022-12-24T06:07:24.225Z,98966.78
2022-12-24T06:10:03.028Z,98982.97
2022-12-24T06:12:40.229Z,98988.00
2022-12-24T06:15:20.294Z,98985.97
2022-12-24T06:17:54.051Z,98988.94
2022-12-24T06:20:31.736Z,98989.25
2022-12-24T06:23:10.190Z,98988.59
2022-12-24T06:25:39.133Z,98984.94
2022-12-24T06:28:11.176Z,98993.22
2022-12-24T06:30:43.722Z,99000.88
2022-12-24T06:33:15.815Z,99007.63
2022-12-24T06:35:51.112Z,99009.28
2022-12-24T06:38:29.854Z,99002.75
2022-12-24T06:41:11.225Z,99001.22
2022-12-24T06:43:44.744Z,99012.38
2022-12-24T06:46:14.663Z,98995.97
2022-12-24T06:48:52.384Z,99002.88
2022-12-24T06:51:24.026Z,98996.88
2022-12-24T06:53:55.936Z,99004.72
2022-12-24T06:56:32.293Z,99005.03
2022-12-24T06:59:08.454Z,99017.22
2022-12-24T07:01:37.893Z,99031.25
2022-12-24T07:04:16.211Z,99031.75
2022-12-24T07:06:52.662Z,99051.09
2022-12-24T07:09:35.847Z,99050.78
2022-12-24T07:12:17.960Z,99057.75
2022-12-24T07:14:47.495Z,99068.66
2022-12-24T07:17:19.408Z,99060.16
2022-12-24T07:19:51.223Z,99059.25
2022-12-24T07:22:22.800Z,99070.50
2022-12-24T07:24:54.728Z,99059.69
2022-12-24T07:27:23.894Z,99061.00
2022-12-24T07:29:52.192Z,99065.19
2022-12-24T07:32:21.606Z,99082.56
2022-12-24T07:34:50.218Z,99076.19
2022-12-24T07:37:19.703Z,99095.81
2022-12-24T07:39:51.924Z,99108.06
2022-12-24T07:42:33.130Z,99102.19
2022-12-24T07:45:14.144Z,99111.66
2022-12-24T07:47:43.951Z,99113.44
2022-12-24T07:50:21.517Z,99122.78
2022-12-24T07:52:55.451Z,99122.06
2022-12-24T07:55:35.602Z,99114.47
2022-12-24T07:58:19.337Z,99126.44
2022-12-24T08:00:56.856Z,99135.53
2022-12-24T08:03:27.176Z,99132.28
2022-12-24T08:05:56.221Z,99147.88
2022-12-24T08:08:25.820Z,99153.31
2022-12-24T08:11:01.588Z,99150.00
2022-12-24T08:13:33.044Z,99146.63
2022-12-24T08:16:11.324Z,99137.59
2022-12-24T08:18:42.572Z,99162.75
2022-12-24T08:21:18.295Z,99159.53
2022-12-24T08:23:55.699Z,99173.97
2022-12-24T08:26:24.384Z,99172.97
2022-12-24T08:29:05.455Z,99164.56
2022-12-24T08:31:40.354Z,99163.09
2022-12-24T08:34:18.900Z,99184.78
2022-12-24T08:36:47.264Z,99181.00
2022-12-24T08:39:29.251Z,99178.00
2022-12-24T08:42:01.046Z,99194.69
2022-12-24T08:44:31.884Z,99184.03
2022-12-24T08:47:03.178Z,99194.19
2022-12-24T08:49:31.327Z,99201.94
2022-12-24T08:52:10.646Z,99222.69
2022-12-24T08:54:43.004Z,99216.16
2022-12-24T08:57:11.231Z,99223.31
2022-12-24T08:59:45.429Z,99206.84
2022-12-24T09:02:19.854Z,99226.50
2022-12-24T09:04:54.336Z,99234.13
2022-12-24T09:07:31.185Z,99247.63
2022-12-24T09:10:02.742Z,99236.78
2022-12-24T09:12:47.224Z,99252.41
2022-12-24T09:15:24.593Z,99233.66
2022-12-24T09:17:56.224Z,99256.69
2022-12-24T09:20:25.928Z,99260.34
2022-12-24T09:22:54.357Z,99246.44
2022-12-24T09:25:23.555Z,99244.19
2022-12-24T09:28:00.018Z,99243.91
2022-12-24T09:30:44.371Z,99251.41
2022-12-24T09:33:15.825Z,99260.63
2022-12-24T09:35:52.384Z,99266.38
2022-12-24T09:38:29.094Z,99266.13
2022-12-24T09:41:08.977Z,99253.50
2022-12-24T09:43:41.429Z,99255.16
2022-12-24T09:46:28.237Z,99260.09
2022-12-24T09:49:09.862Z,99271.09
2022-12-24T09:51:41.837Z,99271.66
2022-12-24T09:54:17.287Z,99276.38
2022-12-24T09:56:58.748Z,99292.28
2022-12-24T09:59:35.970Z,99288.63
2022-12-24T10:02:14.474Z,99291.34
2022-12-24T10:04:46.375Z,99305.19
2022-12-24T10:07:29.839Z,99308.59
2022-12-24T10:10:06.643Z,99302.13
2022-12-24T10:12:52.497Z,99306.84
2022-12-24T10:15:28.313Z,99320.06
2022-12-24T10:18:12.133Z,99326.06
2022-12-24T10:20:48.820Z,99322.28
2022-12-24T10:23:27.906Z,99340.78
2022-12-24T10:26:07.881Z,99337.16
2022-12-24T10:28:43.636Z,99332.34
2022-12-24T10:31:17.398Z,99341.22
2022-12-24T10:33:58.485Z,99344.06
2022-12-24T10:36:30.575Z,99352.97
2022-12-24T10:39:02.264Z,99338.09
2022-12-24T10:41:32.747Z,99344.34
2022-12-24T10:44:04.795Z,99329.47
2022-12-24T10:46:37.863Z,99347.06
2022-12-24T10:49:17.605Z,99334.75
2022-12-24T10:51:54.853Z,99355.44
2022-12-24T10:54:27.216Z,99319.59
2022-12-24T10:57:02.076Z,99323.31
2022-12-24T10:59:32.680Z,99325.31
2022-12-24T11:02:04.018Z,99339.88
2022-12-24T11:04:49.223Z,99308.34
2022-12-24T11:07:25.897Z,99320.91
2022-12-24T11:10:03.208Z,99338.53
2022-12-24T11:12:34.937Z,99331.94
2022-12-24T11:15:07.139Z,99318.22
2022-12-24T11:17:37.658Z,99342.72
2022-12-24T11:20:20.162Z,99302.41
2022-12-24T11:22:52.827Z,99336.31
2022-12-24T11:25:31.799Z,99360.44
2022-12-24T11:28:13.500Z,99298.00
2022-12-24T11:30:46.464Z,99332.91
2022-12-24T11:33:21.242Z,99308.66
2022-12-24T11:36:14.770Z,99312.88
2022-12-24T11:38:44.635Z,99306.03
2022-12-24T11:41:15.911Z,99313.44
2022-12-24T11:43:50.611Z,99318.28
2022-12-24T11:46:41.876Z,99318.47
2022-12-24T11:49:27.739Z,99323.66
2022-12-24T11:52:36.930Z,99317.38
2022-12-24T11:55:32.542Z,99329.91
2022-12-24T11:58:08.669Z,99330.31
2022-12-24T12:00:46.241Z,99338.50
2022-12-24T12:03:29.687Z,99347.59
2022-12-24T12:06:01.201Z,99334.31
2022-12-24T12:08:36.788Z,99339.19
2022-12-24T12:11:11.887Z,99337.91
2022-12-24T12:13:47.559Z,99333.16
2022-12-24T12:16:23.292Z,99345.00
2022-12-24T12:18:59.026Z,99337.47
2022-12-24T12:21:38.995Z,99329.03
2022-12-24T12:24:32.250Z,99346.09
2022-12-24T12:27:14.511Z,99333.03
2022-12-24T12:29:47.186Z,99342.22
2022-12-24T12:32:28.788Z,99341.06
2022-12-24T12:35:03.473Z,99345.84
2022-12-24T12:37:42.464Z,99358.41
2022-12-24T12:40:27.860Z,99358.19
2022-12-24T12:43:14.332Z,99381.72
2022-12-24T12:45:53.061Z,99399.91
2022-12-24T12:48:55.669Z,99374.50
2022-12-24T12:51:39.239Z,99392.22
2022-12-24T12:54:36.127Z,99395.66
2022-12-24T12:57:17.924Z,99402.00
2022-12-24T12:59:55.032Z,99393.41
2022-12-24T13:02:49.994Z,99412.75
2022-12-24T13:06:23.318Z,99417.78
2022-12-24T13:09:33.210Z,99436.19
2022-12-24T13:12:29.648Z,99442.22
2022-12-24T13:15:21.149Z,99434.75
2022-12-24T13:18:37.260Z,99445.56
2022-12-24T13:21:16.184Z,99471.25
2022-12-24T13:23:53.708Z,99467.25
2022-12-24T13:26:28.353Z,99463.97
2022-12-24T13:29:39.897Z,99455.31
2022-12-24T13:33:00.126Z,99463.38
2022-12-24T13:35:43.578Z,99468.41
2022-12-24T13:38:52.941Z,99468.97
2022-12-24T13:42:03.704Z,99470.88
2022-12-24T13:44:45.699Z,99467.09
2022-12-24T13:47:32.102Z,99461.59
2022-12-24T13:50:23.309Z,99470.47
2022-12-24T13:52:58.871Z,99460.56
2022-12-24T13:55:36.765Z,99475.22
2022-12-24T13:58:20.819Z,99461.41
2022-12-24T14:01:06.586Z,99480.41
2022-12-24T14:03:45.789Z,99483.44
2022-12-24T14:06:28.111Z,99490.50
2022-12-24T14:09:06.184Z,99485.16
2022-12-24T14:12:16.449Z,99494.53
2022-12-24T14:14:46.469Z,99499.19
2022-12-24T14:17:26.622Z,99503.69
2022-12-24T14:19:57.862Z,99503.25
2022-12-24T14:22:38.835Z,99514.59
2022-12-24T14:25:21.169Z,99513.25
2022-12-24T14:27:57.010Z,99522.69
2022-12-24T14:30:35.790Z,99522.25
2022-12-24T14:33:06.994Z,99545.91
2022-12-24T14:35:39.330Z,99529.41
2022-12-24T14:38:10.108Z,99526.03
2022-12-24T14:40:58.459Z,99533.97
2022-12-24T14:43:35.607Z,99528.63
2022-12-24T14:46:20.807Z,99532.88
2022-12-24T14:48:55.480Z,99540.16
2022-12-24T14:51:35.779Z,99551.50
2022-12-24T14:54:39.652Z,99550.44
2022-12-24T14:57:31.152Z,99551.25
2022-12-24T15:00:03.395Z,99543.94
2022-12-24T15:02:47.092Z,99567.69
2022-12-24T15:05:29.420Z,99564.75
2022-12-24T15:08:00.890Z,99567.00
2022-12-24T15:10:32.937Z,99577.53
2022-12-24T15:13:09.467Z,99575.44
2022-12-24T15:15:40.207Z,99582.16
2022-12-24T15:18:19.001Z,99576.50
2022-12-24T15:21:08.282Z,99582.34
2022-12-24T15:23:50.491Z,99579.09
2022-12-24T15:26:27.922Z,99570.84
2022-12-24T15:29:03.353Z,99578.81
2022-12-24T15:31:36.733Z,99580.22
2022-12-24T15:34:06.015Z,99578.00
2022-12-24T15:36:46.976Z,99568.19
2022-12-24T15:39:19.097Z,99581.41
2022-12-24T15:42:07.248Z,99595.56
2022-12-24T15:44:38.454Z,99581.84
2022-12-24T15:47:12.976Z,99586.72
2022-12-24T15:49:41.914Z,99588.44
2022-12-24T15:52:29.029Z,99600.38
2022-12-24T15:55:04.211Z,99601.09
2022-12-24T15:57:38.098Z,99607.53
2022-12-24T16:00:25.466Z,99606.53
2022-12-24T16:02:54.254Z,99602.72
2022-12-24T16:05:54.908Z,99607.13
2022-12-24T16:08:46.033Z,99604.28
2022-12-24T16:11:23.469Z,99606.72
2022-12-24T16:14:21.299Z,99610.63
2022-12-24T16:16:52.885Z,99616.25
2022-12-24T16:19:37.770Z,99623.25
2022-12-24T16:22:27.161Z,99622.16
2022-12-24T16:25:03.289Z,99628.88
2022-12-24T16:27:34.128Z,99633.94
2022-12-24T16:30:11.257Z,99628.75
2022-12-24T16:32:42.189Z,99632.53
2022-12-24T16:35:24.153Z,99635.59
2022-12-24T16:37:56.121Z,99628.31
2022-12-24T16:40:39.608Z,99621.69
2022-12-24T16:43:30.264Z,99636.47
2022-12-24T16:46:06.236Z,99642.47
2022-12-24T16:48:38.133Z,99636.97
2022-12-24T16:51:07.052Z,99638.50
2022-12-24T16:53:37.806Z,99636.84
2022-12-24T16:56:17.039Z,99643.03
2022-12-24T16:58:47.284Z,99640.38
2022-12-24T17:01:23.426Z,99641.09
2022-12-24T17:03:54.865Z,99646.66
2022-12-24T17:06:25.281Z,99654.69
2022-12-24T17:08:54.109Z,99656.97
2022-12-24T17:11:26.183Z,99651.91
2022-12-24T17:13:55.147Z,99660.19
2022-12-24T17:16:26.065Z,99675.47
2022-12-24T17:19:03.909Z,99667.75
2022-12-24T17:21:36.000Z,99670.69
2022-12-24T17:24:13.086Z,99673.50
2022-12-24T17:26:49.215Z,99668.88
2022-12-24T17:29:18.416Z,99672.44
2022-12-24T17:31:52.225Z,99676.22
2022-12-24T17:34:21.652Z,99687.56
2022-12-24T17:36:51.155Z,99683.09
2022-12-24T17:39:27.406Z,99692.91
2022-12-24T17:42:15.258Z,99684.34
2022-12-24T17:44:54.059Z,99687.91
2022-12-24T17:47:23.642Z,99701.63
2022-12-24T17:49:51.908Z,99698.97
2022-12-24T17:52:26.012Z,99708.38
2022-12-24T17:55:03.336Z,99707.81
2022-12-24T17:57:47.171Z,99706.41
2022-12-24T18:00:20.557Z,99697.84
2022-12-24T18:02:50.249Z,99700.66
2022-12-24T18:05:21.508Z,99698.09
2022-12-24T18:07:53.858Z,99688.81
2022-12-24T18:10:23.065Z,99699.94
2022-12-24T18:12:53.650Z,99705.38
2022-12-24T18:15:24.651Z,99698.81
2022-12-24T18:17:56.271Z,99693.72
2022-12-24T18:20:32.102Z,99694.03
2022-12-24T18:23:10.505Z,99697.06
2022-12-24T18:25:41.726Z,99700.59
2022-12-24T18:28:16.546Z,99704.41
2022-12-24T18:30:47.136Z,99702.88
2022-12-24T18:33:16.991Z,99705.38
2022-12-24T18:35:53.522Z,99713.94
2022-12-24T18:38:24.244Z,99719.28
2022-12-24T18:40:53.141Z,99714.81
2022-12-24T18:43:34.530Z,99721.84
2022-12-24T18:46:10.165Z,99709.47
2022-12-24T18:48:42.980Z,99721.84
2022-12-24T18:51:13.484Z,99737.28
2022-12-24T18:53:50.319Z,99735.03
2022-12-24T18:56:30.054Z,99746.34
2022-12-24T18:59:07.457Z,99758.97
2022-12-24T19:01:38.475Z,99763.75
2022-12-24T19:04:15.081Z,99762.31
2022-12-24T19:06:53.763Z,99763.19
2022-12-24T19:09:30.510Z,99760.22
2022-12-24T19:12:08.717Z,99764.84
2022-12-24T19:14:40.224Z,99769.50
2022-12-24T19:17:11.598Z,99775.50
2022-12-24T19:19:40.956Z,99766.41
2022-12-24T19:22:13.374Z,99775.69
2022-12-24T19:24:45.919Z,99784.41
2022-12-24T19:27:18.993Z,99781.75
2022-12-24T19:29:56.908Z,99780.16
2022-12-24T19:32:26.190Z,99789.63
2022-12-24T19:34:55.851Z,99784.41
2022-12-24T19:37:24.179Z,99800.84
2022-12-24T19:39:55.589Z,99798.72
2022-12-24T19:42:25.700Z,99801.53
2022-12-24T19:44:56.214Z,99811.25
2022-12-24T19:47:27.242Z,99797.91
2022-12-24T19:49:59.157Z,99809.56
2022-12-24T19:52:36.830Z,99821.81
2022-12-24T19:55:09.230Z,99818.00
2022-12-24T19:57:48.784Z,99828.84
2022-12-24T20:00:21.798Z,99827.00
2022-12-24T20:02:50.562Z,99825.16
2022-12-24T20:05:22.781Z,99833.31
2022-12-24T20:07:51.153Z,99835.03
2022-12-24T20:10:21.868Z,99845.28
2022-12-24T20:12:52.407Z,99841.91
2022-12-24T20:15:31.489Z,99843.75
2022-12-24T20:18:06.347Z,99843.03
2022-12-24T20:20:35.972Z,99843.44
2022-12-24T20:23:18.980Z,99836.53
2022-12-24T20:25:48.563Z,99842.75
2022-12-24T20:28:20.256Z,99852.84
2022-12-24T20:30:57.881Z,99848.66
2022-12-24T20:33:27.655Z,99846.97
2022-12-24T20:36:02.842Z,99842.31
2022-12-24T20:38:31.344Z,99841.50
2022-12-24T20:41:03.092Z,99832.63
2022-12-24T20:43:37.201Z,99848.22
2022-12-24T20:46:23.079Z,99849.75
2022-12-24T20:48:52.526Z,99853.56
2022-12-24T20:51:24.558Z,99844.13
2022-12-24T20:53:55.888Z,99853.00
2022-12-24T20:56:26.725Z,99857.81
2022-12-24T20:58:57.348Z,99858.34
2022-12-24T21:01:36.665Z,99856.66
2022-12-24T21:04:08.326Z,99862.28
2022-12-24T21:06:42.590Z,99853.44
2022-12-24T21:09:12.210Z,99861.72
2022-12-24T21:11:59.581Z,99859.38
2022-12-24T21:14:32.389Z,99863.56
2022-12-24T21:17:16.538Z,99863.25
2022-12-24T21:19:50.180Z,99861.03
2022-12-24T21:22:28.219Z,99865.38
2022-12-24T21:24:58.467Z,99861.84
2022-12-24T21:27:27.250Z,99854.00
2022-12-24T21:29:55.346Z,99864.97
2022-12-24T21:32:32.863Z,99863.81
2022-12-24T21:35:03.165Z,99864.38
2022-12-24T21:37:32.269Z,99865.50
2022-12-24T21:40:02.040Z,99866.94
2022-12-24T21:42:42.603Z,99874.25
2022-12-24T21:45:20.678Z,99872.28
2022-12-24T21:47:57.997Z,99870.59
2022-12-24T21:50:45.870Z,99860.59
2022-12-24T21:53:32.585Z,99859.75
2022-12-24T21:56:09.873Z,99847.38
2022-12-24T21:58:39.729Z,99841.63
2022-12-24T22:01:09.949Z,99840.22
2022-12-24T22:03:53.567Z,99852.72
2022-12-24T22:06:40.589Z,99846.94
2022-12-24T22:09:30.617Z,99858.63
2022-12-24T22:12:01.014Z,99855.97
2022-12-24T22:14:31.343Z,99862.44
2022-12-24T22:17:02.003Z,99865.78
2022-12-24T22:19:45.507Z,99858.63
2022-12-24T22:22:13.578Z,99854.69
2022-12-24T22:24:45.864Z,99852.44
2022-12-24T22:27:24.846Z,99859.50
2022-12-24T22:29:53.537Z,99860.44
2022-12-24T22:32:24.078Z,99854.69
2022-12-24T22:34:54.804Z,99864.38
2022-12-24T22:37:27.017Z,99855.50
2022-12-24T22:39:58.606Z,99851.16
2022-12-24T22:42:28.069Z,99855.66
2022-12-24T22:44:56.289Z,99853.69
2022-12-24T22:47:29.177Z,99857.91
2022-12-24T22:50:03.844Z,99862.13
2022-12-24T22:52:34.877Z,99870.72
2022-12-24T22:55:05.825Z,99871.13
2022-12-24T22:57:46.020Z,99869.84
2022-12-24T23:00:18.307Z,99875.88
2022-12-24T23:02:49.179Z,99872.81
2022-12-24T23:05:27.337Z,99879.50
2022-12-24T23:07:59.180Z,99878.69
2022-12-24T23:10:29.971Z,99876.19
2022-12-24T23:13:18.254Z,99884.88
2022-12-24T23:15:47.989Z,99893.75
2022-12-24T23:18:29.545Z,99902.31
2022-12-24T23:21:08.764Z,99879.00
2022-12-24T23:23:39.193Z,99896.56
2022-12-24T23:26:08.548Z,99901.56
2022-12-24T23:28:45.958Z,99899.06
2022-12-24T23:31:15.791Z,99893.84
2022-12-24T23:33:47.037Z,99892.84
2022-12-24T23:36:21.373Z,99912.44
2022-12-24T23:38:58.014Z,99914.69
2022-12-24T23:41:36.296Z,99922.66
2022-12-24T23:44:05.217Z,99918.09
2022-12-24T23:46:35.373Z,99924.34
2022-12-24T23:49:03.625Z,99921.00
2022-12-24T23:51:34.673Z,99919.47
2022-12-24T23:54:08.752Z,99924.53
2022-12-24T23:56:37.413Z,99915.00
2022-12-24T23:59:13.682Z,99912.13
